sensor_id;sensor_type;location;lat;lon;timestamp;pressure;altitude;pressure_sealevel;temperature;humidity
47742;BME280;33504;52.066;6.096;2022-12-15T00:00:05;100528.30;;;-3.29;41.38
47742;BME280;33504;52.066;6.096;2022-12-15T00:02:33;100524.24;;;-3.33;41.40
47742;BME280;33504;52.066;6.096;2022-12-15T00:05:10;100523.31;;;-3.38;41.88
47742;BME280;33504;52.066;6.096;2022-12-15T00:07:38;100523.28;;;-3.40;42.18
47742;BME280;33504;52.066;6.096;2022-12-15T00:10:05;100523.90;;;-3.38;42.20
47742;BME280;33504;52.066;6.096;2022-12-15T00:12:32;100527.07;;;-3.33;42.19
47742;BME280;33504;52.066;6.096;2022-12-15T00:15:00;100526.93;;;-3.02;42.30
47742;BME280;33504;52.066;6.096;2022-12-15T00:17:43;100528.62;;;-3.32;42.50
47742;BME280;33504;52.066;6.096;2022-12-15T00:20:10;100533.51;;;-3.32;42.77
47742;BME280;33504;52.066;6.096;2022-12-15T00:35:45;100545.93;;;-3.26;43.59
47742;BME280;33504;52.066;6.096;2022-12-15T00:38:13;100549.54;;;-4.76;42.86
47742;BME280;33504;52.066;6.096;2022-12-15T00:40:40;100551.51;;;-3.03;41.27
47742;BME280;33504;52.066;6.096;2022-12-15T00:43:08;100545.35;;;-2.80;41.38
47742;BME280;33504;52.066;6.096;2022-12-15T00:45:46;100548.36;;;-3.02;41.71
47742;BME280;33504;52.066;6.096;2022-12-15T00:48:18;100542.76;;;-2.94;41.94
47742;BME280;33504;52.066;6.096;2022-12-15T00:50:45;100548.89;;;-3.22;42.01
47742;BME280;33504;52.066;6.096;2022-12-15T00:53:13;100556.46;;;-3.26;42.05
47742;BME280;33504;52.066;6.096;2022-12-15T00:55:41;100557.22;;;-3.27;42.06
47742;BME280;33504;52.066;6.096;2022-12-15T00:58:13;100557.84;;;-3.06;41.99
47742;BME280;33504;52.066;6.096;2022-12-15T01:00:40;100555.46;;;-3.19;42.29
47742;BME280;33504;52.066;6.096;2022-12-15T01:03:11;100555.10;;;-3.10;42.21
47742;BME280;33504;52.066;6.096;2022-12-15T01:05:44;100557.70;;;-3.35;42.49
47742;BME280;33504;52.066;6.096;2022-12-15T01:08:17;100556.04;;;-3.33;42.29
47742;BME280;33504;52.066;6.096;2022-12-15T01:10:44;100560.07;;;-3.09;42.37
47742;BME280;33504;52.066;6.096;2022-12-15T01:13:12;100564.75;;;-3.29;42.43
47742;BME280;33504;52.066;6.096;2022-12-15T01:15:39;100568.09;;;-3.05;42.43
47742;BME280;33504;52.066;6.096;2022-12-15T01:18:07;100567.69;;;-3.01;42.50
47742;BME280;33504;52.066;6.096;2022-12-15T01:20:39;100567.92;;;-2.99;42.53
47742;BME280;33504;52.066;6.096;2022-12-15T01:23:07;100569.20;;;-2.94;42.66
47742;BME280;33504;52.066;6.096;2022-12-15T01:25:37;100565.15;;;-3.14;42.60
47742;BME280;33504;52.066;6.096;2022-12-15T01:28:15;100567.65;;;-3.15;42.74
47742;BME280;33504;52.066;6.096;2022-12-15T01:30:47;100567.11;;;-2.90;42.70
47742;BME280;33504;52.066;6.096;2022-12-15T01:33:16;100567.15;;;-2.86;42.68
47742;BME280;33504;52.066;6.096;2022-12-15T01:35:44;100573.65;;;-3.01;42.58
47742;BME280;33504;52.066;6.096;2022-12-15T01:38:21;100575.71;;;-2.99;42.55
47742;BME280;33504;52.066;6.096;2022-12-15T01:40:51;100579.09;;;-2.77;42.55
47742;BME280;33504;52.066;6.096;2022-12-15T01:43:29;100578.60;;;-3.21;42.71
47742;BME280;33504;52.066;6.096;2022-12-15T01:46:05;100582.11;;;-2.98;42.85
47742;BME280;33504;52.066;6.096;2022-12-15T01:48:41;100588.05;;;-2.96;42.84
47742;BME280;33504;52.066;6.096;2022-12-15T01:51:18;100588.66;;;-2.97;42.77
47742;BME280;33504;52.066;6.096;2022-12-15T01:53:52;100591.10;;;-3.16;42.74
47742;BME280;33504;52.066;6.096;2022-12-15T01:56:21;100594.36;;;-2.94;42.61
47742;BME280;33504;52.066;6.096;2022-12-15T01:58:50;100595.05;;;-2.96;42.53
47742;BME280;33504;52.066;6.096;2022-12-15T02:01:29;100600.27;;;-2.74;42.48
47742;BME280;33504;52.066;6.096;2022-12-15T02:04:06;100602.27;;;-2.77;42.45
47742;BME280;33504;52.066;6.096;2022-12-15T02:06:39;100602.03;;;-3.01;42.53
47742;BME280;33504;52.066;6.096;2022-12-15T02:09:07;100600.55;;;-3.00;42.65
47742;BME280;33504;52.066;6.096;2022-12-15T02:11:50;100599.52;;;-3.00;42.81
47742;BME280;33504;52.066;6.096;2022-12-15T02:14:31;100598.64;;;-2.80;42.86
47742;BME280;33504;52.066;6.096;2022-12-15T02:17:21;100601.12;;;-3.30;42.97
47742;BME280;33504;52.066;6.096;2022-12-15T02:20:12;100605.39;;;-2.84;42.80
47742;BME280;33504;52.066;6.096;2022-12-15T02:23:10;100607.64;;;-2.86;42.65
47742;BME280;33504;52.066;6.096;2022-12-15T02:25:58;100607.70;;;-2.89;42.69
47742;BME280;33504;52.066;6.096;2022-12-15T02:28:51;100603.70;;;-3.13;42.66
47742;BME280;33504;52.066;6.096;2022-12-15T02:31:30;100602.93;;;-2.93;42.66
47742;BME280;33504;52.066;6.096;2022-12-15T02:34:18;100598.51;;;-2.94;42.61
47742;BME280;33504;52.066;6.096;2022-12-15T02:36:54;100600.49;;;-2.96;42.54
47742;BME280;33504;52.066;6.096;2022-12-15T02:39:28;100603.72;;;-2.97;42.49
47742;BME280;33504;52.066;6.096;2022-12-15T02:42:07;100601.79;;;-3.21;42.52
47742;BME280;33504;52.066;6.096;2022-12-15T02:44:46;100601.33;;;-3.23;42.63
47742;BME280;33504;52.066;6.096;2022-12-15T02:47:20;100602.87;;;-3.01;42.86
47742;BME280;33504;52.066;6.096;2022-12-15T02:50:06;100599.49;;;-3.23;42.72
47742;BME280;33504;52.066;6.096;2022-12-15T02:52:50;100600.25;;;-3.01;42.79
47742;BME280;33504;52.066;6.096;2022-12-15T02:55:38;100598.86;;;-2.99;42.82
47742;BME280;33504;52.066;6.096;2022-12-15T02:58:17;100599.80;;;-3.22;42.75
47742;BME280;33504;52.066;6.096;2022-12-15T03:00:57;100600.49;;;-3.21;42.70
47742;BME280;33504;52.066;6.096;2022-12-15T03:03:25;100600.52;;;-3.01;42.66
47742;BME280;33504;52.066;6.096;2022-12-15T03:05:55;100603.21;;;-3.25;42.62
47742;BME280;33504;52.066;6.096;2022-12-15T03:08:33;100604.41;;;-3.25;42.62
47742;BME280;33504;52.066;6.096;2022-12-15T03:11:01;100607.82;;;-3.05;42.72
47742;BME280;33504;52.066;6.096;2022-12-15T03:13:29;100606.80;;;-3.06;42.75
47742;BME280;33504;52.066;6.096;2022-12-15T03:16:06;100607.96;;;-3.10;42.77
47742;BME280;33504;52.066;6.096;2022-12-15T03:18:43;100613.17;;;-3.11;42.75
47742;BME280;33504;52.066;6.096;2022-12-15T03:21:11;100617.11;;;-3.19;42.87
47742;BME280;33504;52.066;6.096;2022-12-15T03:23:43;100620.75;;;-3.16;42.88
47742;BME280;33504;52.066;6.096;2022-12-15T03:26:11;100622.41;;;-3.18;42.88
47742;BME280;33504;52.066;6.096;2022-12-15T03:28:38;100628.32;;;-3.20;43.09
47742;BME280;33504;52.066;6.096;2022-12-15T03:31:15;100627.88;;;-3.56;43.29
47742;BME280;33504;52.066;6.096;2022-12-15T03:33:47;100623.88;;;-3.37;43.41
47742;BME280;33504;52.066;6.096;2022-12-15T03:36:14;100626.11;;;-3.60;43.49
47742;BME280;33504;52.066;6.096;2022-12-15T03:38:46;100625.65;;;-3.36;43.54
47742;BME280;33504;52.066;6.096;2022-12-15T03:41:18;100626.44;;;-3.38;43.61
47742;BME280;33504;52.066;6.096;2022-12-15T03:43:50;100626.85;;;-3.62;43.70
47742;BME280;33504;52.066;6.096;2022-12-15T03:46:18;100628.99;;;-3.38;43.98
47742;BME280;33504;52.066;6.096;2022-12-15T03:48:50;100636.29;;;-3.33;43.86
47742;BME280;33504;52.066;6.096;2022-12-15T03:51:17;100641.80;;;-3.32;44.01
47742;BME280;33504;52.066;6.096;2022-12-15T03:53:45;100641.67;;;-3.27;43.85
47742;BME280;33504;52.066;6.096;2022-12-15T03:56:17;100637.04;;;-3.26;43.75
47742;BME280;33504;52.066;6.096;2022-12-15T03:58:49;100634.67;;;-3.24;43.64
47742;BME280;33504;52.066;6.096;2022-12-15T04:01:31;100636.98;;;-3.20;43.49
47742;BME280;33504;52.066;6.096;2022-12-15T04:04:08;100641.78;;;-3.18;43.39
47742;BME280;33504;52.066;6.096;2022-12-15T04:06:45;100642.21;;;-3.18;43.34
47742;BME280;33504;52.066;6.096;2022-12-15T04:09:22;100641.05;;;-3.16;43.28
47742;BME280;33504;52.066;6.096;2022-12-15T04:11:54;100639.09;;;-3.16;43.29
47742;BME280;33504;52.066;6.096;2022-12-15T04:14:26;100640.21;;;-3.15;43.23
47742;BME280;33504;52.066;6.096;2022-12-15T04:17:03;100644.01;;;-3.15;43.23
47742;BME280;33504;52.066;6.096;2022-12-15T04:19:30;100646.74;;;-3.12;43.29
47742;BME280;33504;52.066;6.096;2022-12-15T04:21:57;100652.78;;;-3.10;43.23
47742;BME280;33504;52.066;6.096;2022-12-15T04:24:35;100657.27;;;-3.10;43.26
47742;BME280;33504;52.066;6.096;2022-12-15T04:27:07;100658.46;;;-3.09;43.21
47742;BME280;33504;52.066;6.096;2022-12-15T04:29:34;100656.37;;;-3.08;43.26
47742;BME280;33504;52.066;6.096;2022-12-15T04:32:01;100654.24;;;-3.07;43.19
47742;BME280;33504;52.066;6.096;2022-12-15T04:34:34;100653.22;;;-3.07;43.20
47742;BME280;33504;52.066;6.096;2022-12-15T04:37:14;100650.79;;;-3.30;43.12
47742;BME280;33504;52.066;6.096;2022-12-15T04:39:53;100651.67;;;-3.05;43.13
47742;BME280;33504;52.066;6.096;2022-12-15T04:42:30;100648.07;;;-3.04;43.07
47742;BME280;33504;52.066;6.096;2022-12-15T04:45:00;100648.11;;;-3.04;42.99
47742;BME280;33504;52.066;6.096;2022-12-15T04:47:28;100644.56;;;-3.02;42.99
47742;BME280;33504;52.066;6.096;2022-12-15T04:50:01;100646.86;;;-3.04;43.02
47742;BME280;33504;52.066;6.096;2022-12-15T04:52:38;100647.66;;;-3.06;43.10
47742;BME280;33504;52.066;6.096;2022-12-15T04:55:14;100650.28;;;-3.07;43.58
47742;BME280;33504;52.066;6.096;2022-12-15T04:57:42;100646.56;;;-3.05;43.66
47742;BME280;33504;52.066;6.096;2022-12-15T05:00:10;100645.76;;;-3.00;43.44
47742;BME280;33504;52.066;6.096;2022-12-15T05:02:47;100646.91;;;-2.97;43.17
47742;BME280;33504;52.066;6.096;2022-12-15T05:05:20;100650.11;;;-3.19;43.12
47742;BME280;33504;52.066;6.096;2022-12-15T05:07:54;100650.27;;;-3.19;43.08
47742;BME280;33504;52.066;6.096;2022-12-15T05:10:23;100651.97;;;-3.04;42.98
47742;BME280;33504;52.066;6.096;2022-12-15T05:12:58;100654.57;;;-3.04;42.96
47742;BME280;33504;52.066;6.096;2022-12-15T05:15:39;100660.57;;;-3.09;42.94
47742;BME280;33504;52.066;6.096;2022-12-15T05:18:07;100662.58;;;-3.49;44.89
47742;BME280;33504;52.066;6.096;2022-12-15T05:20:39;100662.31;;;-4.13;46.74
47742;BME280;33504;52.066;6.096;2022-12-15T05:23:06;100663.34;;;-3.63;45.57
47742;BME280;33504;52.066;6.096;2022-12-15T05:25:43;100656.35;;;-3.46;45.08
47742;BME280;33504;52.066;6.096;2022-12-15T05:28:15;100654.49;;;-3.35;44.80
47742;BME280;33504;52.066;6.096;2022-12-15T05:30:42;100656.13;;;-3.26;44.74
47742;BME280;33504;52.066;6.096;2022-12-15T05:33:20;100657.42;;;-3.25;44.61
47742;BME280;33504;52.066;6.096;2022-12-15T05:35:48;100664.75;;;-3.19;44.64
47742;BME280;33504;52.066;6.096;2022-12-15T05:38:25;100671.40;;;-3.17;44.58
47742;BME280;33504;52.066;6.096;2022-12-15T05:41:02;100674.92;;;-3.10;44.41
47742;BME280;33504;52.066;6.096;2022-12-15T05:43:30;100672.16;;;-3.04;44.17
47742;BME280;33504;52.066;6.096;2022-12-15T05:46:07;100671.16;;;-3.00;43.98
47742;BME280;33504;52.066;6.096;2022-12-15T05:48:40;100669.71;;;-3.00;43.79
47742;BME280;33504;52.066;6.096;2022-12-15T05:51:14;100672.05;;;-3.00;43.69
47742;BME280;33504;52.066;6.096;2022-12-15T05:53:41;100676.10;;;-2.99;43.55
47742;BME280;33504;52.066;6.096;2022-12-15T05:56:14;100676.04;;;-2.99;43.37
47742;BME280;33504;52.066;6.096;2022-12-15T05:58:47;100681.31;;;-2.99;43.26
47742;BME280;33504;52.066;6.096;2022-12-15T06:01:19;100689.86;;;-3.04;43.17
47742;BME280;33504;52.066;6.096;2022-12-15T06:03:47;100693.65;;;-3.07;43.17
47742;BME280;33504;52.066;6.096;2022-12-15T06:06:15;100695.84;;;-3.09;43.10
47742;BME280;33504;52.066;6.096;2022-12-15T06:08:43;100702.47;;;-3.31;43.06
47742;BME280;33504;52.066;6.096;2022-12-15T06:11:11;100705.21;;;-3.14;43.08
47742;BME280;33504;52.066;6.096;2022-12-15T06:13:44;100708.37;;;-3.15;43.20
47742;BME280;33504;52.066;6.096;2022-12-15T06:16:23;100711.17;;;-3.13;43.22
47742;BME280;33504;52.066;6.096;2022-12-15T06:18:53;100707.37;;;-3.13;43.14
47742;BME280;33504;52.066;6.096;2022-12-15T06:21:22;100705.22;;;-3.11;43.06
47742;BME280;33504;52.066;6.096;2022-12-15T06:23:55;100706.43;;;-3.34;43.00
47742;BME280;33504;52.066;6.096;2022-12-15T06:26:24;100710.37;;;-3.14;43.00
47742;BME280;33504;52.066;6.096;2022-12-15T06:28:54;100713.34;;;-3.17;42.95
47742;BME280;33504;52.066;6.096;2022-12-15T06:31:22;100717.46;;;-3.20;42.96
47742;BME280;33504;52.066;6.096;2022-12-15T06:33:54;100719.39;;;-3.19;43.07
47742;BME280;33504;52.066;6.096;2022-12-15T06:36:32;100716.82;;;-3.28;43.61
47742;BME280;33504;52.066;6.096;2022-12-15T06:38:59;100719.63;;;-3.24;43.72
47742;BME280;33504;52.066;6.096;2022-12-15T06:41:28;100723.64;;;-3.20;43.54
47742;BME280;33504;52.066;6.096;2022-12-15T06:43:56;100721.55;;;-3.40;43.46
47742;BME280;33504;52.066;6.096;2022-12-15T06:46:24;100721.74;;;-3.19;43.35
47742;BME280;33504;52.066;6.096;2022-12-15T06:48:56;100724.44;;;-3.22;43.53
47742;BME280;33504;52.066;6.096;2022-12-15T06:51:29;100725.68;;;-3.39;44.28
47742;BME280;33504;52.066;6.096;2022-12-15T06:53:58;100726.72;;;-3.40;45.07
47742;BME280;33504;52.066;6.096;2022-12-15T06:56:36;100730.27;;;-3.38;45.56
47742;BME280;33504;52.066;6.096;2022-12-15T06:59:04;100736.09;;;-3.35;46.28
47742;BME280;33504;52.066;6.096;2022-12-15T07:01:42;100739.38;;;-3.17;45.99
47742;BME280;33504;52.066;6.096;2022-12-15T07:04:19;100738.35;;;-3.25;45.41
47742;BME280;33504;52.066;6.096;2022-12-15T07:06:46;100741.54;;;-2.95;44.95
47742;BME280;33504;52.066;6.096;2022-12-15T07:09:14;100737.23;;;-3.16;44.65
47742;BME280;33504;52.066;6.096;2022-12-15T07:11:42;100736.46;;;-2.89;44.61
47742;BME280;33504;52.066;6.096;2022-12-15T07:14:10;100737.49;;;-2.86;44.42
47742;BME280;33504;52.066;6.096;2022-12-15T07:16:37;100743.98;;;-2.91;44.28
47742;BME280;33504;52.066;6.096;2022-12-15T07:19:04;100741.17;;;-3.03;44.38
47742;BME280;33504;52.066;6.096;2022-12-15T07:21:31;100739.51;;;-3.14;45.34
47742;BME280;33504;52.066;6.096;2022-12-15T07:23:59;100735.20;;;-3.02;45.14
47742;BME280;33504;52.066;6.096;2022-12-15T07:26:26;100744.37;;;-2.95;44.95
47742;BME280;33504;52.066;6.096;2022-12-15T07:28:59;100750.20;;;-3.22;45.05
47742;BME280;33504;52.066;6.096;2022-12-15T07:31:26;100757.84;;;-3.03;45.38
47742;BME280;33504;52.066;6.096;2022-12-15T07:33:53;100762.30;;;-3.47;46.39
47742;BME280;33504;52.066;6.096;2022-12-15T07:36:20;100767.71;;;-3.35;46.61
47742;BME280;33504;52.066;6.096;2022-12-15T07:38:47;100770.30;;;-3.23;46.62
47742;BME280;33504;52.066;6.096;2022-12-15T07:41:25;100770.12;;;-3.30;46.16
47742;BME280;33504;52.066;6.096;2022-12-15T07:43:52;100767.07;;;-3.29;46.47
47742;BME280;33504;52.066;6.096;2022-12-15T07:46:19;100766.18;;;-3.02;46.32
47742;BME280;33504;52.066;6.096;2022-12-15T07:48:47;100762.48;;;-2.91;46.11
47742;BME280;33504;52.066;6.096;2022-12-15T07:51:14;100765.79;;;-2.91;46.09
47742;BME280;33504;52.066;6.096;2022-12-15T07:53:42;100765.52;;;-3.06;46.11
47742;BME280;33504;52.066;6.096;2022-12-15T07:56:09;100768.34;;;-3.13;46.52
47742;BME280;33504;52.066;6.096;2022-12-15T07:58:37;100772.02;;;-2.69;46.04
47742;BME280;33504;52.066;6.096;2022-12-15T08:01:07;100774.54;;;-3.34;47.39
47742;BME280;33504;52.066;6.096;2022-12-15T08:03:34;100779.78;;;-3.37;47.41
47742;BME280;33504;52.066;6.096;2022-12-15T08:06:03;100783.39;;;-2.96;46.57
47742;BME280;33504;52.066;6.096;2022-12-15T08:08:35;100789.90;;;-2.84;46.73
47742;BME280;33504;52.066;6.096;2022-12-15T08:11:03;100795.59;;;-2.72;46.19
47742;BME280;33504;52.066;6.096;2022-12-15T08:13:32;100798.32;;;-3.01;46.25
47742;BME280;33504;52.066;6.096;2022-12-15T08:16:10;100796.00;;;-2.77;46.28
47742;BME280;33504;52.066;6.096;2022-12-15T08:18:38;100798.17;;;-2.63;46.05
47742;BME280;33504;52.066;6.096;2022-12-15T08:21:15;100805.35;;;-2.85;46.59
47742;BME280;33504;52.066;6.096;2022-12-15T08:23:42;100811.20;;;-2.54;46.51
47742;BME280;33504;52.066;6.096;2022-12-15T08:26:11;100811.77;;;-3.03;47.00
47742;BME280;33504;52.066;6.096;2022-12-15T08:28:40;100814.46;;;-2.55;46.82
47742;BME280;33504;52.066;6.096;2022-12-15T08:31:10;100814.45;;;-2.46;46.35
47742;BME280;33504;52.066;6.096;2022-12-15T08:33:48;100809.20;;;-2.35;46.39
47742;BME280;33504;52.066;6.096;2022-12-15T08:36:26;100805.30;;;-2.60;46.31
47742;BME280;33504;52.066;6.096;2022-12-15T08:38:59;100800.20;;;-2.39;46.33
47742;BME280;33504;52.066;6.096;2022-12-15T08:41:29;100797.67;;;-2.43;46.54
47742;BME280;33504;52.066;6.096;2022-12-15T08:43:58;100802.39;;;-2.36;46.59
47742;BME280;33504;52.066;6.096;2022-12-15T08:46:27;100806.60;;;-2.19;46.39
47742;BME280;33504;52.066;6.096;2022-12-15T08:48:56;100812.62;;;-2.31;46.69
47742;BME280;33504;52.066;6.096;2022-12-15T08:51:30;100815.42;;;-2.23;46.30
47742;BME280;33504;52.066;6.096;2022-12-15T08:53:59;100820.66;;;-1.99;46.30
47742;BME280;33504;52.066;6.096;2022-12-15T08:56:27;100823.02;;;-2.61;47.24
47742;BME280;33504;52.066;6.096;2022-12-15T08:58:56;100822.39;;;-2.37;47.42
47742;BME280;33504;52.066;6.096;2022-12-15T09:01:25;100820.00;;;-2.14;47.24
47742;BME280;33504;52.066;6.096;2022-12-15T09:03:53;100822.43;;;-2.71;48.10
47742;BME280;33504;52.066;6.096;2022-12-15T09:06:23;100825.33;;;-1.93;46.83
47742;BME280;33504;52.066;6.096;2022-12-15T09:08:53;100821.69;;;-2.02;46.50
47742;BME280;33504;52.066;6.096;2022-12-15T09:11:21;100818.97;;;-1.96;46.92
47742;BME280;33504;52.066;6.096;2022-12-15T09:13:48;100820.28;;;-1.69;46.82
47742;BME280;33504;52.066;6.096;2022-12-15T09:16:17;100822.98;;;-1.72;46.32
47742;BME280;33504;52.066;6.096;2022-12-15T09:18:47;100821.30;;;-1.71;46.03
47742;BME280;33504;52.066;6.096;2022-12-15T09:21:16;100822.56;;;-1.72;46.02
47742;BME280;33504;52.066;6.096;2022-12-15T09:23:47;100822.54;;;-1.42;46.45
47742;BME280;33504;52.066;6.096;2022-12-15T09:26:15;100829.37;;;-1.67;46.52
47742;BME280;33504;52.066;6.096;2022-12-15T09:28:43;100836.67;;;-1.71;47.09
47742;BME280;33504;52.066;6.096;2022-12-15T09:31:12;100838.27;;;-1.60;46.84
47742;BME280;33504;52.066;6.096;2022-12-15T09:33:41;100841.64;;;-1.60;46.40
47742;BME280;33504;52.066;6.096;2022-12-15T09:36:09;100848.06;;;-0.80;45.83
47742;BME280;33504;52.066;6.096;2022-12-15T09:38:37;100849.23;;;-1.22;45.83
47742;BME280;33504;52.066;6.096;2022-12-15T09:41:12;100850.30;;;-1.16;45.60
47742;BME280;33504;52.066;6.096;2022-12-15T09:43:57;100852.02;;;-1.01;45.87
47742;BME280;33504;52.066;6.096;2022-12-15T09:46:40;100854.02;;;-1.39;46.14
47742;BME280;33504;52.066;6.096;2022-12-15T09:49:15;100854.62;;;-1.50;46.64
47742;BME280;33504;52.066;6.096;2022-12-15T09:51:52;100855.29;;;-1.54;46.98
47742;BME280;33504;52.066;6.096;2022-12-15T09:54:23;100858.03;;;-1.24;46.42
47742;BME280;33504;52.066;6.096;2022-12-15T09:57:09;100855.09;;;-1.40;46.71
47742;BME280;33504;52.066;6.096;2022-12-15T09:59:51;100854.93;;;-1.02;46.25
47742;BME280;33504;52.066;6.096;2022-12-15T10:02:32;100858.81;;;-1.46;46.66
47742;BME280;33504;52.066;6.096;2022-12-15T10:05:12;100859.26;;;-0.98;46.56
47742;BME280;33504;52.066;6.096;2022-12-15T10:07:43;100857.26;;;-0.54;46.08
47742;BME280;33504;52.066;6.096;2022-12-15T10:10:16;100857.07;;;-0.50;46.17
47742;BME280;33504;52.066;6.096;2022-12-15T10:12:49;100850.96;;;-0.74;46.42
47742;BME280;33504;52.066;6.096;2022-12-15T10:15:22;100848.71;;;-0.07;45.88
47742;BME280;33504;52.066;6.096;2022-12-15T10:17:55;100844.41;;;-0.02;45.65
47742;BME280;33504;52.066;6.096;2022-12-15T10:20:27;100840.84;;;0.25;45.33
47742;BME280;33504;52.066;6.096;2022-12-15T10:22:56;100839.71;;;0.45;45.15
47742;BME280;33504;52.066;6.096;2022-12-15T10:25:29;100835.62;;;0.09;45.38
47742;BME280;33504;52.066;6.096;2022-12-15T10:28:11;100837.92;;;0.36;45.24
47742;BME280;33504;52.066;6.096;2022-12-15T10:30:51;100840.93;;;1.00;45.13
47742;BME280;33504;52.066;6.096;2022-12-15T10:33:24;100843.20;;;1.92;43.76
47742;BME280;33504;52.066;6.096;2022-12-15T10:35:54;100846.03;;;3.24;40.67
47742;BME280;33504;52.066;6.096;2022-12-15T10:38:24;100840.58;;;4.55;38.20
47742;BME280;33504;52.066;6.096;2022-12-15T10:40:54;100837.51;;;5.52;36.96
47742;BME280;33504;52.066;6.096;2022-12-15T10:43:26;100839.76;;;5.92;35.80
47742;BME280;33504;52.066;6.096;2022-12-15T10:46:12;100842.80;;;6.44;33.90
47742;BME280;33504;52.066;6.096;2022-12-15T10:48:40;100844.82;;;6.89;33.53
47742;BME280;33504;52.066;6.096;2022-12-15T10:51:16;100847.13;;;7.18;32.52
47742;BME280;33504;52.066;6.096;2022-12-15T10:53:46;100851.43;;;7.52;31.53
47742;BME280;33504;52.066;6.096;2022-12-15T10:56:19;100852.24;;;7.20;31.77
47742;BME280;33504;52.066;6.096;2022-12-15T10:58:50;100848.58;;;7.65;31.92
47742;BME280;33504;52.066;6.096;2022-12-15T11:01:19;100846.08;;;8.23;31.45
47742;BME280;33504;52.066;6.096;2022-12-15T11:03:50;100841.02;;;8.63;30.47
47742;BME280;33504;52.066;6.096;2022-12-15T11:06:20;100841.95;;;8.73;29.96
47742;BME280;33504;52.066;6.096;2022-12-15T11:08:50;100844.07;;;9.31;30.28
47742;BME280;33504;52.066;6.096;2022-12-15T11:11:27;100843.95;;;9.26;28.77
47742;BME280;33504;52.066;6.096;2022-12-15T11:14:05;100842.63;;;9.01;29.13
47742;BME280;33504;52.066;6.096;2022-12-15T11:16:32;100845.23;;;8.33;29.71
47742;BME280;33504;52.066;6.096;2022-12-15T11:19:04;100850.99;;;8.56;29.85
47742;BME280;33504;52.066;6.096;2022-12-15T11:21:37;100849.76;;;8.39;30.04
47742;BME280;33504;52.066;6.096;2022-12-15T11:24:11;100848.20;;;8.81;29.62
47742;BME280;33504;52.066;6.096;2022-12-15T11:26:48;100848.27;;;9.34;29.65
47742;BME280;33504;52.066;6.096;2022-12-15T11:29:31;100845.86;;;9.33;28.92
47742;BME280;33504;52.066;6.096;2022-12-15T11:32:21;100841.70;;;10.25;28.12
47742;BME280;33504;52.066;6.096;2022-12-15T11:34:55;100842.99;;;10.53;27.66
47742;BME280;33504;52.066;6.096;2022-12-15T11:37:40;100847.78;;;10.44;27.27
47742;BME280;33504;52.066;6.096;2022-12-15T11:40:42;100856.38;;;11.83;27.13
47742;BME280;33504;52.066;6.096;2022-12-15T11:43:32;100855.66;;;11.26;27.04
47742;BME280;33504;52.066;6.096;2022-12-15T11:46:20;100851.28;;;11.40;26.13
47742;BME280;33504;52.066;6.096;2022-12-15T11:49:22;100847.15;;;11.32;27.15
47742;BME280;33504;52.066;6.096;2022-12-15T11:51:59;100850.79;;;11.50;27.19
47742;BME280;33504;52.066;6.096;2022-12-15T11:54:32;100849.07;;;10.82;26.99
47742;BME280;33504;52.066;6.096;2022-12-15T11:57:30;100851.88;;;11.02;27.29
47742;BME280;33504;52.066;6.096;2022-12-15T12:00:16;100850.35;;;10.39;27.98
47742;BME280;33504;52.066;6.096;2022-12-15T12:03:10;100850.27;;;9.40;28.79
47742;BME280;33504;52.066;6.096;2022-12-15T12:05:58;100843.00;;;8.18;30.15
47742;BME280;33504;52.066;6.096;2022-12-15T12:08:45;100847.91;;;7.29;31.77
47742;BME280;33504;52.066;6.096;2022-12-15T12:11:18;100851.17;;;6.75;32.97
47742;BME280;33504;52.066;6.096;2022-12-15T12:14:00;100849.74;;;5.73;33.99
47742;BME280;33504;52.066;6.096;2022-12-15T12:16:38;100845.21;;;5.41;34.96
47742;BME280;33504;52.066;6.096;2022-12-15T12:19:10;100847.61;;;5.12;35.63
47742;BME280;33504;52.066;6.096;2022-12-15T12:21:43;100843.06;;;5.07;35.98
47742;BME280;33504;52.066;6.096;2022-12-15T12:24:18;100842.70;;;5.25;36.39
47742;BME280;33504;52.066;6.096;2022-12-15T12:27:04;100842.45;;;4.99;36.54
47742;BME280;33504;52.066;6.096;2022-12-15T12:29:34;100845.18;;;4.59;36.83
47742;BME280;33504;52.066;6.096;2022-12-15T12:32:09;100845.88;;;4.57;37.39
47742;BME280;33504;52.066;6.096;2022-12-15T12:34:49;100842.00;;;4.20;37.99
47742;BME280;33504;52.066;6.096;2022-12-15T12:37:21;100843.87;;;3.58;39.08
47742;BME280;33504;52.066;6.096;2022-12-15T12:39:52;100838.65;;;3.58;39.48
47742;BME280;33504;52.066;6.096;2022-12-15T12:42:28;100829.37;;;3.48;40.01
47742;BME280;33504;52.066;6.096;2022-12-15T12:44:57;100831.34;;;3.72;40.32
47742;BME280;33504;52.066;6.096;2022-12-15T12:47:31;100831.82;;;3.84;39.48
47742;BME280;33504;52.066;6.096;2022-12-15T12:50:01;100833.38;;;3.67;39.48
47742;BME280;33504;52.066;6.096;2022-12-15T12:52:32;100832.78;;;3.62;39.47
47742;BME280;33504;52.066;6.096;2022-12-15T12:55:02;100833.92;;;3.97;39.54
47742;BME280;33504;52.066;6.096;2022-12-15T12:57:34;100823.57;;;3.81;39.43
47742;BME280;33504;52.066;6.096;2022-12-15T13:00:17;100821.55;;;4.21;39.14
47742;BME280;33504;52.066;6.096;2022-12-15T13:02:52;100824.14;;;4.32;38.87
47742;BME280;33504;52.066;6.096;2022-12-15T13:05:26;100827.67;;;4.25;39.03
47742;BME280;33504;52.066;6.096;2022-12-15T13:08:15;100820.95;;;4.34;39.22
47742;BME280;33504;52.066;6.096;2022-12-15T13:10:44;100816.21;;;4.87;38.21
47742;BME280;33504;52.066;6.096;2022-12-15T13:13:34;100814.14;;;4.15;39.09
47742;BME280;33504;52.066;6.096;2022-12-15T13:16:05;100810.38;;;4.50;38.75
47742;BME280;33504;52.066;6.096;2022-12-15T13:18:55;100804.29;;;4.62;38.69
47742;BME280;33504;52.066;6.096;2022-12-15T13:21:55;100801.09;;;4.75;39.47
47742;BME280;33504;52.066;6.096;2022-12-15T13:24:30;100799.64;;;4.26;39.10
47742;BME280;33504;52.066;6.096;2022-12-15T13:27:12;100796.53;;;4.27;38.82
47742;BME280;33504;52.066;6.096;2022-12-15T13:29:56;100793.08;;;4.08;39.49
47742;BME280;33504;52.066;6.096;2022-12-15T13:32:28;100799.22;;;3.83;39.79
47742;BME280;33504;52.066;6.096;2022-12-15T13:34:56;100796.60;;;3.71;39.84
47742;BME280;33504;52.066;6.096;2022-12-15T13:37:47;100793.10;;;3.73;40.09